sensor_id;sensor_type;location;lat;lon;timestamp;temperature;humidity
75010;DHT22;63564;46.840;18.336;2024-02-28T00:02:35;9.58;95.52
75010;DHT22;63564;46.840;18.336;2024-02-28T00:05:35;9.69;95.62
75010;DHT22;63564;46.840;18.336;2024-02-28T00:08:36;9.72;95.41
75010;DHT22;63564;46.840;18.336;2024-02-28T00:11:40;9.74;95.12
75010;DHT22;63564;46.840;18.336;2024-02-28T00:14:40;9.72;95.05
75010;DHT22;63564;46.840;18.336;2024-02-28T00:17:41;9.59;95.80
75010;DHT22;63564;46.840;18.336;2024-02-28T00:20:44;9.51;96.24
75010;DHT22;63564;46.840;18.336;2024-02-28T00:23:44;9.44;96.46
75010;DHT22;63564;46.840;18.336;2024-02-28T00:26:45;9.42;96.49
75010;DHT22;63564;46.840;18.336;2024-02-28T00:29:45;9.38;96.44
75010;DHT22;63564;46.840;18.336;2024-02-28T00:32:46;9.39;96.40
75010;DHT22;63564;46.840;18.336;2024-02-28T00:35:47;9.37;96.39
75010;DHT22;63564;46.840;18.336;2024-02-28T00:38:47;9.38;96.39
75010;DHT22;63564;46.840;18.336;2024-02-28T00:41:47;9.31;96.54
75010;DHT22;63564;46.840;18.336;2024-02-28T00:44:48;9.24;96.60
75010;DHT22;63564;46.840;18.336;2024-02-28T00:47:48;9.20;96.65
75010;DHT22;63564;46.840;18.336;2024-02-28T00:50:49;9.38;96.18
75010;DHT22;63564;46.840;18.336;2024-02-28T00:53:49;9.35;96.17
75010;DHT22;63564;46.840;18.336;2024-02-28T00:56:49;9.23;96.57
75010;DHT22;63564;46.840;18.336;2024-02-28T00:59:50;9.17;96.58
75010;DHT22;63564;46.840;18.336;2024-02-28T01:02:50;9.13;96.74
75010;DHT22;63564;46.840;18.336;2024-02-28T01:05:50;9.04;96.92
75010;DHT22;63564;46.840;18.336;2024-02-28T01:08:51;9.04;96.86
75010;DHT22;63564;46.840;18.336;2024-02-28T01:11:51;9.03;96.95
75010;DHT22;63564;46.840;18.336;2024-02-28T01:14:52;9.03;97.05
75010;DHT22;63564;46.840;18.336;2024-02-28T01:17:52;9.03;97.16
75010;DHT22;63564;46.840;18.336;2024-02-28T01:20:53;9.16;96.44
75010;DHT22;63564;46.840;18.336;2024-02-28T01:23:53;9.16;96.44
75010;DHT22;63564;46.840;18.336;2024-02-28T01:26:54;9.24;95.92
75010;DHT22;63564;46.840;18.336;2024-02-28T01:29:54;9.19;95.84
75010;DHT22;63564;46.840;18.336;2024-02-28T01:32:54;8.93;96.75
75010;DHT22;63564;46.840;18.336;2024-02-28T01:35:55;8.90;97.15
75010;DHT22;63564;46.840;18.336;2024-02-28T01:38:55;8.90;97.01
75010;DHT22;63564;46.840;18.336;2024-02-28T01:41:56;9.04;96.33
75010;DHT22;63564;46.840;18.336;2024-02-28T01:44:57;8.93;96.11
75010;DHT22;63564;46.840;18.336;2024-02-28T01:47:58;8.75;96.76
75010;DHT22;63564;46.840;18.336;2024-02-28T01:50:59;8.69;96.96
75010;DHT22;63564;46.840;18.336;2024-02-28T01:53:59;8.66;96.91
75010;DHT22;63564;46.840;18.336;2024-02-28T01:57:00;8.58;96.86
75010;DHT22;63564;46.840;18.336;2024-02-28T02:00:01;8.54;97.02
75010;DHT22;63564;46.840;18.336;2024-02-28T02:03:01;8.40;97.19
75010;DHT22;63564;46.840;18.336;2024-02-28T02:06:03;8.42;96.90
75010;DHT22;63564;46.840;18.336;2024-02-28T02:09:04;8.46;96.93
75010;DHT22;63564;46.840;18.336;2024-02-28T02:12:04;8.45;96.77
75010;DHT22;63564;46.840;18.336;2024-02-28T02:15:05;8.23;97.06
75010;DHT22;63564;46.840;18.336;2024-02-28T02:18:05;8.34;97.29
75010;DHT22;63564;46.840;18.336;2024-02-28T02:21:06;8.25;97.32
75010;DHT22;63564;46.840;18.336;2024-02-28T02:24:07;8.27;97.11
75010;DHT22;63564;46.840;18.336;2024-02-28T02:27:07;8.35;96.72
75010;DHT22;63564;46.840;18.336;2024-02-28T02:30:08;8.27;96.73
75010;DHT22;63564;46.840;18.336;2024-02-28T02:33:08;8.11;96.98
75010;DHT22;63564;46.840;18.336;2024-02-28T02:36:09;8.06;97.05
75010;DHT22;63564;46.840;18.336;2024-02-28T02:39:09;7.97;97.28
75010;DHT22;63564;46.840;18.336;2024-02-28T02:42:09;8.00;97.28
75010;DHT22;63564;46.840;18.336;2024-02-28T02:45:10;8.11;97.05
75010;DHT22;63564;46.840;18.336;2024-02-28T02:48:10;8.15;96.96
75010;DHT22;63564;46.840;18.336;2024-02-28T02:51:11;8.08;96.87
75010;DHT22;63564;46.840;18.336;2024-02-28T02:54:11;8.00;97.07
75010;DHT22;63564;46.840;18.336;2024-02-28T02:57:12;7.93;97.33
75010;DHT22;63564;46.840;18.336;2024-02-28T03:00:12;7.93;96.90
75010;DHT22;63564;46.840;18.336;2024-02-28T03:03:13;8.11;96.56
75010;DHT22;63564;46.840;18.336;2024-02-28T03:06:13;8.33;95.69
75010;DHT22;63564;46.840;18.336;2024-02-28T03:09:13;8.34;95.45
75010;DHT22;63564;46.840;18.336;2024-02-28T03:12:14;8.31;95.52
75010;DHT22;63564;46.840;18.336;2024-02-28T03:15:14;8.23;95.75
75010;DHT22;63564;46.840;18.336;2024-02-28T03:18:15;8.00;96.83
75010;DHT22;63564;46.840;18.336;2024-02-28T03:21:15;7.96;97.05
75010;DHT22;63564;46.840;18.336;2024-02-28T03:24:17;7.82;97.36
75010;DHT22;63564;46.840;18.336;2024-02-28T03:27:17;7.83;97.35
75010;DHT22;63564;46.840;18.336;2024-02-28T03:30:17;7.83;96.91
75010;DHT22;63564;46.840;18.336;2024-02-28T03:33:18;8.00;95.88
75010;DHT22;63564;46.840;18.336;2024-02-28T03:36:18;7.89;96.28
75010;DHT22;63564;46.840;18.336;2024-02-28T03:39:19;7.77;96.73
75010;DHT22;63564;46.840;18.336;2024-02-28T03:42:19;7.94;96.17
75010;DHT22;63564;46.840;18.336;2024-02-28T03:45:19;7.76;95.87
75010;DHT22;63564;46.840;18.336;2024-02-28T03:48:20;7.68;96.31
75010;DHT22;63564;46.840;18.336;2024-02-28T03:51:20;7.59;96.73
75010;DHT22;63564;46.840;18.336;2024-02-28T03:54:20;7.39;97.55
75010;DHT22;63564;46.840;18.336;2024-02-28T03:57:21;7.25;98.03
75010;DHT22;63564;46.840;18.336;2024-02-28T04:00:21;7.08;98.43
75010;DHT22;63564;46.840;18.336;2024-02-28T04:03:21;7.03;98.69
75010;DHT22;63564;46.840;18.336;2024-02-28T04:06:22;7.03;98.83
75010;DHT22;63564;46.840;18.336;2024-02-28T04:09:22;6.94;99.06
75010;DHT22;63564;46.840;18.336;2024-02-28T04:12:22;6.94;98.96
75010;DHT22;63564;46.840;18.336;2024-02-28T04:15:23;7.18;98.33
75010;DHT22;63564;46.840;18.336;2024-02-28T04:18:26;7.18;97.19
75010;DHT22;63564;46.840;18.336;2024-02-28T04:21:26;7.21;97.76
75010;DHT22;63564;46.840;18.336;2024-02-28T04:24:26;7.05;97.80
75010;DHT22;63564;46.840;18.336;2024-02-28T04:27:27;7.03;98.22
75010;DHT22;63564;46.840;18.336;2024-02-28T04:30:27;6.89;98.34
75010;DHT22;63564;46.840;18.336;2024-02-28T04:33:28;6.86;98.17
75010;DHT22;63564;46.840;18.336;2024-02-28T04:36:28;6.87;98.30
75010;DHT22;63564;46.840;18.336;2024-02-28T04:39:28;6.94;97.17
75010;DHT22;63564;46.840;18.336;2024-02-28T04:42:29;6.79;98.04
75010;DHT22;63564;46.840;18.336;2024-02-28T04:45:29;6.82;98.44
75010;DHT22;63564;46.840;18.336;2024-02-28T04:48:30;6.80;98.41
75010;DHT22;63564;46.840;18.336;2024-02-28T04:51:30;6.62;98.45
75010;DHT22;63564;46.840;18.336;2024-02-28T04:54:31;6.18;99.61
75010;DHT22;63564;46.840;18.336;2024-02-28T04:57:31;6.38;98.99
75010;DHT22;63564;46.840;18.336;2024-02-28T05:00:31;6.42;98.98
75010;DHT22;63564;46.840;18.336;2024-02-28T05:03:32;6.49;98.56
75010;DHT22;63564;46.840;18.336;2024-02-28T05:06:32;6.55;98.45
75010;DHT22;63564;46.840;18.336;2024-02-28T05:09:33;6.55;97.70
75010;DHT22;63564;46.840;18.336;2024-02-28T05:12:34;6.46;98.26
75010;DHT22;63564;46.840;18.336;2024-02-28T05:15:34;6.24;98.61
75010;DHT22;63564;46.840;18.336;2024-02-28T05:18:35;6.06;99.32
75010;DHT22;63564;46.840;18.336;2024-02-28T05:21:42;6.00;99.99
75010;DHT22;63564;46.840;18.336;2024-02-28T05:24:45;6.08;99.99
75010;DHT22;63564;46.840;18.336;2024-02-28T05:27:46;6.06;99.99
75010;DHT22;63564;46.840;18.336;2024-02-28T05:30:46;5.94;99.99
75010;DHT22;63564;46.840;18.336;2024-02-28T05:33:47;6.00;99.99
75010;DHT22;63564;46.840;18.336;2024-02-28T05:36:47;5.97;99.99
75010;DHT22;63564;46.840;18.336;2024-02-28T05:39:48;5.94;99.99
75010;DHT22;63564;46.840;18.336;2024-02-28T05:42:49;5.96;99.99
75010;DHT22;63564;46.840;18.336;2024-02-28T05:45:49;6.04;99.99
75010;DHT22;63564;46.840;18.336;2024-02-28T05:48:49;6.01;99.99
75010;DHT22;63564;46.840;18.336;2024-02-28T05:51:50;5.98;99.99
75010;DHT22;63564;46.840;18.336;2024-02-28T05:54:51;6.10;99.99
75010;DHT22;63564;46.840;18.336;2024-02-28T05:57:51;6.11;99.99
75010;DHT22;63564;46.840;18.336;2024-02-28T06:00:52;6.08;99.99
75010;DHT22;63564;46.840;18.336;2024-02-28T06:03:52;6.15;99.99
75010;DHT22;63564;46.840;18.336;2024-02-28T06:06:53;6.31;99.99
75010;DHT22;63564;46.840;18.336;2024-02-28T06:09:53;6.38;99.99
75010;DHT22;63564;46.840;18.336;2024-02-28T06:12:53;6.39;99.99
75010;DHT22;63564;46.840;18.336;2024-02-28T06:15:54;6.32;99.99
75010;DHT22;63564;46.840;18.336;2024-02-28T06:18:55;6.38;99.97
75010;DHT22;63564;46.840;18.336;2024-02-28T06:21:55;6.46;99.99
75010;DHT22;63564;46.840;18.336;2024-02-28T06:24:55;6.56;99.99
75010;DHT22;63564;46.840;18.336;2024-02-28T06:27:56;6.63;99.97
75010;DHT22;63564;46.840;18.336;2024-02-28T06:30:56;6.73;99.80
75010;DHT22;63564;46.840;18.336;2024-02-28T06:33:57;6.80;99.53
75010;DHT22;63564;46.840;18.336;2024-02-28T06:36:57;6.83;98.98
75010;DHT22;63564;46.840;18.336;2024-02-28T06:39:57;6.97;98.96
75010;DHT22;63564;46.840;18.336;2024-02-28T06:42:58;7.31;98.78
75010;DHT22;63564;46.840;18.336;2024-02-28T06:45:58;7.39;98.63
75010;DHT22;63564;46.840;18.336;2024-02-28T06:48:59;7.61;98.03
75010;DHT22;63564;46.840;18.336;2024-02-28T06:51:59;7.90;97.58
75010;DHT22;63564;46.840;18.336;2024-02-28T06:55:01;7.85;96.73
75010;DHT22;63564;46.840;18.336;2024-02-28T06:58:09;7.85;95.43
75010;DHT22;63564;46.840;18.336;2024-02-28T07:01:09;7.86;94.73
75010;DHT22;63564;46.840;18.336;2024-02-28T07:04:09;7.51;96.25
75010;DHT22;63564;46.840;18.336;2024-02-28T07:07:10;7.63;96.73
75010;DHT22;63564;46.840;18.336;2024-02-28T07:10:10;8.14;94.69
75010;DHT22;63564;46.840;18.336;2024-02-28T07:13:11;8.37;95.61
75010;DHT22;63564;46.840;18.336;2024-02-28T07:16:11;8.71;95.53
75010;DHT22;63564;46.840;18.336;2024-02-28T07:19:11;9.17;95.00
75010;DHT22;63564;46.840;18.336;2024-02-28T07:22:12;9.28;93.99
75010;DHT22;63564;46.840;18.336;2024-02-28T07:25:12;9.52;93.33
75010;DHT22;63564;46.840;18.336;2024-02-28T07:28:12;9.89;92.52
75010;DHT22;63564;46.840;18.336;2024-02-28T07:31:16;10.00;92.22
75010;DHT22;63564;46.840;18.336;2024-02-28T07:34:17;10.18;92.28
75010;DHT22;63564;46.840;18.336;2024-02-28T07:37:17;10.31;91.23
75010;DHT22;63564;46.840;18.336;2024-02-28T07:40:17;10.65;91.15
75010;DHT22;63564;46.840;18.336;2024-02-28T07:43:18;10.93;89.70
75010;DHT22;63564;46.840;18.336;2024-02-28T07:46:19;10.86;88.55
75010;DHT22;63564;46.840;18.336;2024-02-28T07:49:19;10.78;89.81
75010;DHT22;63564;46.840;18.336;2024-02-28T07:52:20;10.91;88.95
75010;DHT22;63564;46.840;18.336;2024-02-28T07:55:20;11.06;89.26
75010;DHT22;63564;46.840;18.336;2024-02-28T07:58:22;11.38;87.46
75010;DHT22;63564;46.840;18.336;2024-02-28T08:01:22;11.75;87.07
75010;DHT22;63564;46.840;18.336;2024-02-28T08:04:23;11.54;86.23
75010;DHT22;63564;46.840;18.336;2024-02-28T08:07:24;11.33;88.48
75010;DHT22;63564;46.840;18.336;2024-02-28T08:10:25;11.81;86.07
75010;DHT22;63564;46.840;18.336;2024-02-28T08:13:25;11.84;85.35
75010;DHT22;63564;46.840;18.336;2024-02-28T08:16:28;11.89;85.38
75010;DHT22;63564;46.840;18.336;2024-02-28T08:19:28;12.05;88.85
75010;DHT22;63564;46.840;18.336;2024-02-28T08:22:29;11.78;87.66
75010;DHT22;63564;46.840;18.336;2024-02-28T08:25:29;11.91;87.29
75010;DHT22;63564;46.840;18.336;2024-02-28T08:28:29;12.01;86.87
75010;DHT22;63564;46.840;18.336;2024-02-28T08:31:30;12.22;86.15
75010;DHT22;63564;46.840;18.336;2024-02-28T08:34:30;11.95;86.51
75010;DHT22;63564;46.840;18.336;2024-02-28T08:37:31;12.06;86.70
75010;DHT22;63564;46.840;18.336;2024-02-28T08:40:31;12.37;86.14
75010;DHT22;63564;46.840;18.336;2024-02-28T08:43:31;12.49;86.05
75010;DHT22;63564;46.840;18.336;2024-02-28T08:46:32;12.84;84.47
75010;DHT22;63564;46.840;18.336;2024-02-28T08:49:32;13.09;82.83
75010;DHT22;63564;46.840;18.336;2024-02-28T08:52:33;13.27;81.50
75010;DHT22;63564;46.840;18.336;2024-02-28T08:55:33;13.40;81.04
75010;DHT22;63564;46.840;18.336;2024-02-28T08:58:33;13.26;82.15
75010;DHT22;63564;46.840;18.336;2024-02-28T09:01:34;13.32;80.28
75010;DHT22;63564;46.840;18.336;2024-02-28T09:04:36;13.81;81.55
75010;DHT22;63564;46.840;18.336;2024-02-28T09:07:36;13.35;79.51
75010;DHT22;63564;46.840;18.336;2024-02-28T09:10:36;13.70;79.02
75010;DHT22;63564;46.840;18.336;2024-02-28T09:13:37;13.64;79.69
75010;DHT22;63564;46.840;18.336;2024-02-28T09:16:37;13.60;78.53
75010;DHT22;63564;46.840;18.336;2024-02-28T09:19:37;13.80;77.84
75010;DHT22;63564;46.840;18.336;2024-02-28T09:22:38;13.88;77.99
75010;DHT22;63564;46.840;18.336;2024-02-28T09:25:38;14.25;77.18
75010;DHT22;63564;46.840;18.336;2024-02-28T09:28:38;14.33;77.18
75010;DHT22;63564;46.840;18.336;2024-02-28T09:31:39;14.39;77.96
75010;DHT22;63564;46.840;18.336;2024-02-28T09:34:39;14.80;78.23
75010;DHT22;63564;46.840;18.336;2024-02-28T09:37:40;14.67;77.15
75010;DHT22;63564;46.840;18.336;2024-02-28T09:40:40;14.76;77.56
75010;DHT22;63564;46.840;18.336;2024-02-28T09:43:42;14.94;77.20
75010;DHT22;63564;46.840;18.336;2024-02-28T09:46:44;15.27;75.00
75010;DHT22;63564;46.840;18.336;2024-02-28T09:49:45;15.34;75.12
75010;DHT22;63564;46.840;18.336;2024-02-28T09:52:46;15.12;74.04
75010;DHT22;63564;46.840;18.336;2024-02-28T09:55:47;15.60;74.87
75010;DHT22;63564;46.840;18.336;2024-02-28T09:58:48;16.07;72.55
75010;DHT22;63564;46.840;18.336;2024-02-28T10:01:59;16.04;74.25
75010;DHT22;63564;46.840;18.336;2024-02-28T10:05:01;16.17;73.31
75010;DHT22;63564;46.840;18.336;2024-02-28T10:08:02;16.20;71.45
75010;DHT22;63564;46.840;18.336;2024-02-28T10:11:02;16.31;70.80
75010;DHT22;63564;46.840;18.336;2024-02-28T10:14:03;16.06;70.37
75010;DHT22;63564;46.840;18.336;2024-02-28T10:17:04;15.85;73.26
75010;DHT22;63564;46.840;18.336;2024-02-28T10:20:05;16.14;73.08
75010;DHT22;63564;46.840;18.336;2024-02-28T10:23:06;15.90;73.24
75010;DHT22;63564;46.840;18.336;2024-02-28T10:26:09;16.34;71.79
75010;DHT22;63564;46.840;18.336;2024-02-28T10:29:10;16.87;70.02
75010;DHT22;63564;46.840;18.336;2024-02-28T10:32:12;17.21;68.08
75010;DHT22;63564;46.840;18.336;2024-02-28T10:35:13;17.72;66.51
75010;DHT22;63564;46.840;18.336;2024-02-28T10:38:16;17.67;68.33
75010;DHT22;63564;46.840;18.336;2024-02-28T10:41:18;17.41;67.48
75010;DHT22;63564;46.840;18.336;2024-02-28T10:44:20;17.57;68.09
75010;DHT22;63564;46.840;18.336;2024-02-28T10:47:22;17.62;68.96
75010;DHT22;63564;46.840;18.336;2024-02-28T10:50:22;17.48;68.29
75010;DHT22;63564;46.840;18.336;2024-02-28T10:53:32;17.52;69.68
75010;DHT22;63564;46.840;18.336;2024-02-28T10:56:32;17.38;70.58
75010;DHT22;63564;46.840;18.336;2024-02-28T10:59:34;17.54;69.12
75010;DHT22;63564;46.840;18.336;2024-02-28T11:02:35;18.05;68.60
75010;DHT22;63564;46.840;18.336;2024-02-28T11:05:40;17.57;66.78
75010;DHT22;63564;46.840;18.336;2024-02-28T11:08:41;17.55;67.86
75010;DHT22;63564;46.840;18.336;2024-02-28T11:11:41;17.57;67.05
75010;DHT22;63564;46.840;18.336;2024-02-28T11:14:41;17.81;67.01
75010;DHT22;63564;46.840;18.336;2024-02-28T11:17:42;17.11;67.61
75010;DHT22;63564;46.840;18.336;2024-02-28T11:20:43;17.40;68.18
75010;DHT22;63564;46.840;18.336;2024-02-28T11:23:47;17.42;68.76
75010;DHT22;63564;46.840;18.336;2024-02-28T11:26:48;17.93;66.85
75010;DHT22;63564;46.840;18.336;2024-02-28T11:29:49;18.40;64.84
75010;DHT22;63564;46.840;18.336;2024-02-28T11:32:52;20.57;67.17
75010;DHT22;63564;46.840;18.336;2024-02-28T11:35:56;21.43;58.52
75010;DHT22;63564;46.840;18.336;2024-02-28T11:38:57;20.16;62.03
75010;DHT22;63564;46.840;18.336;2024-02-28T11:42:17;18.61;65.13
75010;DHT22;63564;46.840;18.336;2024-02-28T11:45:18;17.97;65.70
75010;DHT22;63564;46.840;18.336;2024-02-28T11:48:19;18.78;62.72
75010;DHT22;63564;46.840;18.336;2024-02-28T11:51:19;18.85;64.73
75010;DHT22;63564;46.840;18.336;2024-02-28T11:54:20;18.95;63.60
75010;DHT22;63564;46.840;18.336;2024-02-28T11:57:20;19.03;63.39
75010;DHT22;63564;46.840;18.336;2024-02-28T12:00:21;20.05;59.32
75010;DHT22;63564;46.840;18.336;2024-02-28T12:03:22;20.29;59.28
75010;DHT22;63564;46.840;18.336;2024-02-28T12:06:23;20.16;60.21
75010;DHT22;63564;46.840;18.336;2024-02-28T12:09:23;19.64;61.11
75010;DHT22;63564;46.840;18.336;2024-02-28T12:12:27;19.18;62.26
75010;DHT22;63564;46.840;18.336;2024-02-28T12:15:31;19.81;60.17
75010;DHT22;63564;46.840;18.336;2024-02-28T12:18:33;18.87;63.03
75010;DHT22;63564;46.840;18.336;2024-02-28T12:21:35;19.54;62.32
75010;DHT22;63564;46.840;18.336;2024-02-28T12:24:36;19.24;63.17
75010;DHT22;63564;46.840;18.336;2024-02-28T12:27:36;19.33;62.02
75010;DHT22;63564;46.840;18.336;2024-02-28T12:30:41;19.75;63.14
75010;DHT22;63564;46.840;18.336;2024-02-28T12:33:44;19.75;61.21
75010;DHT22;63564;46.840;18.336;2024-02-28T12:36:45;20.11;60.18
75010;DHT22;63564;46.840;18.336;2024-02-28T12:39:45;20.47;58.08
75010;DHT22;63564;46.840;18.336;2024-02-28T12:42:47;19.71;58.49
75010;DHT22;63564;46.840;18.336;2024-02-28T12:45:48;19.74;60.52
75010;DHT22;63564;46.840;18.336;2024-02-28T12:48:48;19.84;60.74
75010;DHT22;63564;46.840;18.336;2024-02-28T12:51:48;20.09;60.83
75010;DHT22;63564;46.840;18.336;2024-02-28T12:54:49;21.08;61.59
75010;DHT22;63564;46.840;18.336;2024-02-28T12:57:50;21.22;56.49
75010;DHT22;63564;46.840;18.336;2024-02-28T13:00:51;21.52;57.63
75010;DHT22;63564;46.840;18.336;2024-02-28T13:03:51;20.76;58.09
75010;DHT22;63564;46.840;18.336;2024-02-28T13:06:52;20.71;57.29
75010;DHT22;63564;46.840;18.336;2024-02-28T13:09:53;20.98;57.06
75010;DHT22;63564;46.840;18.336;2024-02-28T13:12:53;20.61;56.48
75010;DHT22;63564;46.840;18.336;2024-02-28T13:15:54;21.39;56.24
75010;DHT22;63564;46.840;18.336;2024-02-28T13:18:54;21.34;55.36
75010;DHT22;63564;46.840;18.336;2024-02-28T13:21:54;20.59;56.39
75010;DHT22;63564;46.840;18.336;2024-02-28T13:24:56;20.61;58.28
75010;DHT22;63564;46.840;18.336;2024-02-28T13:27:56;19.88;59.82
75010;DHT22;63564;46.840;18.336;2024-02-28T13:30:57;19.78;60.57
75010;DHT22;63564;46.840;18.336;2024-02-28T13:33:58;20.69;57.78
75010;DHT22;63564;46.840;18.336;2024-02-28T13:36:58;20.91;57.04
75010;DHT22;63564;46.840;18.336;2024-02-28T13:39:59;20.88;57.60
75010;DHT22;63564;46.840;18.336;2024-02-28T13:42:59;20.64;58.26
75010;DHT22;63564;46.840;18.336;2024-02-28T13:46:00;19.64;59.62
75010;DHT22;63564;46.840;18.336;2024-02-28T13:49:00;19.41;60.98
75010;DHT22;63564;46.840;18.336;2024-02-28T13:52:00;20.08;61.55
75010;DHT22;63564;46.840;18.336;2024-02-28T13:55:02;20.76;57.62
75010;DHT22;63564;46.840;18.336;2024-02-28T13:58:03;19.81;58.87
75010;DHT22;63564;46.840;18.336;2024-02-28T14:01:03;20.06;61.14
75010;DHT22;63564;46.840;18.336;2024-02-28T14:04:06;20.59;59.49
75010;DHT22;63564;46.840;18.336;2024-02-28T14:07:07;22.93;52.84
75010;DHT22;63564;46.840;18.336;2024-02-28T14:10:07;20.59;54.34
75010;DHT22;63564;46.840;18.336;2024-02-28T14:13:11;20.33;55.73
75010;DHT22;63564;46.840;18.336;2024-02-28T14:16:12;19.63;57.37
75010;DHT22;63564;46.840;18.336;2024-02-28T14:19:12;19.46;57.17
75010;DHT22;63564;46.840;18.336;2024-02-28T14:22:13;19.64;56.39
75010;DHT22;63564;46.840;18.336;2024-02-28T14:25:15;20.04;55.44
75010;DHT22;63564;46.840;18.336;2024-02-28T14:28:16;19.49;56.07
75010;DHT22;63564;46.840;18.336;2024-02-28T14:31:19;19.70;54.65
75010;DHT22;63564;46.840;18.336;2024-02-28T14:34:19;19.29;56.96
75010;DHT22;63564;46.840;18.336;2024-02-28T14:37:20;18.95;57.51
75010;DHT22;63564;46.840;18.336;2024-02-28T14:40:20;18.89;59.07
75010;DHT22;63564;46.840;18.336;2024-02-28T14:43:21;18.88;58.60
75010;DHT22;63564;46.840;18.336;2024-02-28T14:46:21;18.88;61.01
75010;DHT22;63564;46.840;18.336;2024-02-28T14:49:22;18.41;62.46
75010;DHT22;63564;46.840;18.336;2024-02-28T14:52:22;18.37;62.93
75010;DHT22;63564;46.840;18.336;2024-02-28T14:55:23;18.12;63.24
75010;DHT22;63564;46.840;18.336;2024-02-28T14:58:24;18.02;63.18
75010;DHT22;63564;46.840;18.336;2024-02-28T15:01:24;17.95;63.17
75010;DHT22;63564;46.840;18.336;2024-02-28T15:04:26;18.09;63.29
75010;DHT22;63564;46.840;18.336;2024-02-28T15:07:27;18.09;63.98
75010;DHT22;63564;46.840;18.336;2024-02-28T15:10:27;17.89;64.41
75010;DHT22;63564;46.840;18.336;2024-02-28T15:13:27;17.92;63.91
75010;DHT22;63564;46.840;18.336;2024-02-28T15:16:28;17.81;65.44
75010;DHT22;63564;46.840;18.336;2024-02-28T15:19:28;17.78;65.28
75010;DHT22;63564;46.840;18.336;2024-02-28T15:22:30;17.79;65.66
75010;DHT22;63564;46.840;18.336;2024-02-28T15:25:30;17.35;68.19
75010;DHT22;63564;46.840;18.336;2024-02-28T15:28:31;17.10;69.22
75010;DHT22;63564;46.840;18.336;2024-02-28T15:31:31;16.97;70.59
75010;DHT22;63564;46.840;18.336;2024-02-28T15:34:32;16.97;70.23
75010;DHT22;63564;46.840;18.336;2024-02-28T15:37:32;16.77;71.80
75010;DHT22;63564;46.840;18.336;2024-02-28T15:40:34;16.69;72.22
75010;DHT22;63564;46.840;18.336;2024-02-28T15:43:34;16.84;71.18
75010;DHT22;63564;46.840;18.336;2024-02-28T15:46:35;16.87;71.23
75010;DHT22;63564;46.840;18.336;2024-02-28T15:49:37;16.77;72.01
75010;DHT22;63564;46.840;18.336;2024-02-28T15:52:38;16.61;72.27
75010;DHT22;63564;46.840;18.336;2024-02-28T15:55:38;16.25;73.41
75010;DHT22;63564;46.840;18.336;2024-02-28T15:58:39;16.08;74.58
75010;DHT22;63564;46.840;18.336;2024-02-28T16:01:40;15.99;75.52
75010;DHT22;63564;46.840;18.336;2024-02-28T16:04:40;15.90;75.13
75010;DHT22;63564;46.840;18.336;2024-02-28T16:07:40;15.85;74.63
75010;DHT22;63564;46.840;18.336;2024-02-28T16:10:42;15.80;74.34
75010;DHT22;63564;46.840;18.336;2024-02-28T16:13:43;15.58;74.58
75010;DHT22;63564;46.840;18.336;2024-02-28T16:16:43;15.28;75.13
75010;DHT22;63564;46.840;18.336;2024-02-28T16:19:45;15.14;75.32
75010;DHT22;63564;46.840;18.336;2024-02-28T16:22:46;15.04;75.85
75010;DHT22;63564;46.840;18.336;2024-02-28T16:25:46;15.00;76.10
75010;DHT22;63564;46.840;18.336;2024-02-28T16:28:47;14.91;76.46
75010;DHT22;63564;46.840;18.336;2024-02-28T16:31:47;14.80;76.72
75010;DHT22;63564;46.840;18.336;2024-02-28T16:34:50;14.67;77.03
75010;DHT22;63564;46.840;18.336;2024-02-28T16:37:51;14.62;77.49
75010;DHT22;63564;46.840;18.336;2024-02-28T16:40:51;14.49;78.02
75010;DHT22;63564;46.840;18.336;2024-02-28T16:43:52;14.36;78.54
75010;DHT22;63564;46.840;18.336;2024-02-28T16:46:55;14.24;79.41
75010;DHT22;63564;46.840;18.336;2024-02-28T16:49:55;14.11;79.74
75010;DHT22;63564;46.840;18.336;2024-02-28T16:52:56;14.02;80.09
75010;DHT22;63564;46.840;18.336;2024-02-28T16:55:57;14.05;79.72
75010;DHT22;63564;46.840;18.336;2024-02-28T16:58:59;14.11;79.30
75010;DHT22;63564;46.840;18.336;2024-02-28T17:01:59;14.12;78.96
75010;DHT22;63564;46.840;18.336;2024-02-28T17:05:00;14.05;78.99
75010;DHT22;63564;46.840;18.336;2024-02-28T17:08:00;14.04;78.97
75010;DHT22;63564;46.840;18.336;2024-02-28T17:11:02;14.22;78.76
75010;DHT22;63564;46.840;18.336;2024-02-28T17:14:03;14.18;78.97
75010;DHT22;63564;46.840;18.336;2024-02-28T17:17:04;13.77;79.98
75010;DHT22;63564;46.840;18.336;2024-02-28T17:20:05;13.47;81.63
75010;DHT22;63564;46.840;18.336;2024-02-28T17:23:07;13.32;82.36
75010;DHT22;63564;46.840;18.336;2024-02-28T17:26:07;13.20;82.68
75010;DHT22;63564;46.840;18.336;2024-02-28T17:29:08;13.16;82.51
75010;DHT22;63564;46.840;18.336;2024-02-28T17:32:11;13.26;82.50
75010;DHT22;63564;46.840;18.336;2024-02-28T17:35:11;13.44;82.09
75010;DHT22;63564;46.840;18.336;2024-02-28T17:38:12;13.29;82.43
75010;DHT22;63564;46.840;18.336;2024-02-28T17:41:12;13.15;83.04
75010;DHT22;63564;46.840;18.336;2024-02-28T17:44:16;13.14;83.02
75010;DHT22;63564;46.840;18.336;2024-02-28T17:47:17;13.23;82.81
75010;DHT22;63564;46.840;18.336;2024-02-28T17:50:18;13.23;82.89
75010;DHT22;63564;46.840;18.336;2024-02-28T17:53:18;13.26;82.84
75010;DHT22;63564;46.840;18.336;2024-02-28T17:56:18;13.22;83.02
75010;DHT22;63564;46.840;18.336;2024-02-28T17:59:19;13.25;82.97
75010;DHT22;63564;46.840;18.336;2024-02-28T18:02:19;13.29;82.73
75010;DHT22;63564;46.840;18.336;2024-02-28T18:05:21;13.27;82.74
75010;DHT22;63564;46.840;18.336;2024-02-28T18:08:24;13.09;83.13
75010;DHT22;63564;46.840;18.336;2024-02-28T18:11:27;12.85;84.30
75010;DHT22;63564;46.840;18.336;2024-02-28T18:14:27;13.02;83.99
75010;DHT22;63564;46.840;18.336;2024-02-28T18:17:27;13.04;83.72
75010;DHT22;63564;46.840;18.336;2024-02-28T18:20:28;13.04;83.55
75010;DHT22;63564;46.840;18.336;2024-02-28T18:23:28;13.08;83.43
75010;DHT22;63564;46.840;18.336;2024-02-28T18:26:29;13.06;83.44
75010;DHT22;63564;46.840;18.336;2024-02-28T18:29:29;13.05;83.43
75010;DHT22;63564;46.840;18.336;2024-02-28T18:32:30;13.20;83.10
75010;DHT22;63564;46.840;18.336;2024-02-28T18:35:30;13.30;82.68
75010;DHT22;63564;46.840;18.336;2024-02-28T18:38:31;13.12;83.37
75010;DHT22;63564;46.840;18.336;2024-02-28T18:41:32;13.12;83.56
75010;DHT22;63564;46.840;18.336;2024-02-28T18:44:32;13.23;83.37
75010;DHT22;63564;46.840;18.336;2024-02-28T18:47:33;13.05;83.45
75010;DHT22;63564;46.840;18.336;2024-02-28T18:50:34;12.78;84.64
75010;DHT22;63564;46.840;18.336;2024-02-28T18:53:34;12.65;85.00